Time;durP1;ratioP1;P1;durP2;ratioP2;P2;SDS_P1;SDS_P2;PMS_P1;PMS_P2;Temp;Humidity;BMP_temperature;BMP_pressure;BME280_temperature;BME280_humidity;BME280_pressure;Samples;Min_cycle;Max_cycle;Signal;HPM_P1;HPM_P2
2021/05/25 01:55:23;;;;;;;5.94;3.33;;;;;;;12.33;66.02;100315.84;333785;113;2198672;-71
2021/05/25 01:56:29;;;;;;;7.69;3.58;;;;;;;12.21;65.93;100318.12;304879;122;2169695;-72
2021/05/25 01:57:39;;;;;;;4.75;3.84;;;;;;;12.20;66.01;100316.50;270535;122;3168797;-73
2021/05/25 01:59:56;;;;;;;4.04;3.46;;;;;;;12.27;66.21;100314.27;332737;117;2196862;-73
2021/05/25 02:01:03;;;;;;;3.80;3.41;;;;;;;12.18;66.20;100310.63;300582;116;2562000;-71
2021/05/25 02:02:09;;;;;;;4.51;3.40;;;;;;;12.16;66.16;100310.88;301797;124;2168693;-71
2021/05/25 02:03:15;;;;;;;4.47;3.11;;;;;;;12.14;66.21;100316.55;287087;124;3101020;-74
2021/05/25 02:04:20;;;;;;;4.78;3.77;;;;;;;12.14;65.93;100319.23;298526;124;2170659;-72
2021/05/25 02:05:34;;;;;;;4.63;3.52;;;;;;;12.14;66.18;100313.86;301924;124;2168661;-73
2021/05/25 02:07:55;;;;;;;5.43;3.79;;;;;;;12.25;66.87;100311.87;318953;116;2280752;-72
2021/05/25 02:10:31;;;;;;;6.59;3.59;;;;;;;12.26;66.31;100323.42;332800;117;2195645;-73
2021/05/25 02:11:39;;;;;;;6.52;3.85;;;;;;;12.16;66.49;100318.95;315800;119;2171071;-74
2021/05/25 02:12:44;;;;;;;4.45;3.62;;;;;;;12.16;67.16;100319.77;304342;114;2168780;-75
2021/05/25 02:13:50;;;;;;;6.74;3.15;;;;;;;12.15;67.58;100320.85;301075;120;2167511;-73
2021/05/25 02:16:13;;;;;;;3.83;2.14;;;;;;;12.30;65.70;100313.70;324728;114;2193848;-71
2021/05/25 02:17:19;;;;;;;2.61;2.40;;;;;;;12.28;64.86;100318.58;291573;124;2389922;-73
2021/05/25 02:19:37;;;;;;;2.91;2.39;;;;;;;12.53;64.26;100319.38;305440;117;2433944;-73
2021/05/25 02:20:45;;;;;;;2.93;2.29;;;;;;;12.49;64.05;100311.86;314747;118;2176718;-74
2021/05/25 02:21:50;;;;;;;3.11;2.31;;;;;;;12.54;63.97;100313.71;287986;123;2385019;-75
2021/05/25 02:22:55;;;;;;;3.94;2.35;;;;;;;12.60;63.55;100309.06;304310;123;2173825;-72
2021/05/25 02:24:02;;;;;;;3.08;2.36;;;;;;;12.67;63.26;100322.97;303482;121;2169789;-74
2021/05/25 02:25:14;;;;;;;2.81;2.52;;;;;;;12.71;63.06;100318.61;281824;120;2701987;-74
2021/05/25 02:26:21;;;;;;;5.63;2.67;;;;;;;12.76;63.02;100320.43;282062;120;3077082;-74
2021/05/25 02:27:27;;;;;;;2.82;2.29;;;;;;;12.81;62.99;100317.69;288421;128;2168687;-74
2021/05/25 02:28:33;;;;;;;5.45;3.80;;;;;;;12.83;62.70;100319.00;293878;128;2170671;-74
2021/05/25 02:29:39;;;;;;;6.02;4.11;;;;;;;12.87;63.51;100316.52;274061;117;2852887;-75
2021/05/25 02:30:45;;;;;;;5.27;3.59;;;;;;;12.90;63.99;100317.83;306931;122;2168655;-74
2021/05/25 02:31:50;;;;;;;5.83;3.82;;;;;;;12.90;64.02;100320.52;307522;118;2168812;-74
2021/05/25 02:32:56;;;;;;;6.76;3.86;;;;;;;12.92;64.03;100321.02;274845;119;2937084;-73
2021/05/25 02:34:07;;;;;;;6.86;3.97;;;;;;;12.93;64.16;100325.33;295872;124;2168811;-73
2021/05/25 02:36:32;;;;;;;4.79;3.98;;;;;;;13.07;64.81;100320.02;323092;119;2279824;-74
2021/05/25 02:38:49;;;;;;;3.70;3.31;;;;;;;13.11;64.83;100321.04;322017;118;2195378;-73
2021/05/25 02:41:06;;;;;;;5.76;4.21;;;;;;;13.17;64.69;100317.17;332789;117;2189876;-72
2021/05/25 02:42:14;;;;;;;6.49;4.28;;;;;;;13.11;64.64;100329.91;315724;119;2168822;-72
2021/05/25 02:43:23;;;;;;;5.13;3.90;;;;;;;13.13;64.54;100322.36;315720;114;2168808;31
2021/05/25 02:45:48;;;;;;;9.08;4.36;;;;;;;13.30;64.47;100331.83;302862;114;2396464;-73
2021/05/25 02:46:53;;;;;;;39.69;7.06;;;;;;;13.22;64.38;100327.09;294414;125;2170860;-73
2021/05/25 02:49:23;;;;;;;9.79;4.21;;;;;;;13.40;64.43;100329.00;325240;117;3075936;-74
2021/05/25 02:50:30;;;;;;;6.37;3.78;;;;;;;13.33;64.35;100329.33;316298;119;2169785;-74
2021/05/25 02:51:36;;;;;;;4.82;3.80;;;;;;;13.35;64.21;100329.88;315841;119;2169211;-74
2021/05/25 02:52:45;;;;;;;4.87;3.48;;;;;;;13.39;64.17;100327.39;309214;119;2169744;-73
2021/05/25 02:53:50;;;;;;;5.33;3.60;;;;;;;13.42;64.12;100326.80;283543;119;2401022;-73
2021/05/25 02:54:55;;;;;;;6.28;3.79;;;;;;;13.46;63.71;100332.41;315527;119;2171911;-72
2021/05/25 02:56:01;;;;;;;5.72;3.77;;;;;;;13.48;63.59;100338.30;315661;119;2171737;-74
2021/05/25 02:57:06;;;;;;;5.06;3.37;;;;;;;13.51;63.79;100330.44;304964;114;2168836;-71
2021/05/25 02:58:17;;;;;;;5.88;3.79;;;;;;;13.54;63.64;100327.15;266853;118;2388003;-76
2021/05/25 02:59:28;;;;;;;5.54;3.59;;;;;;;13.59;63.57;100328.16;294046;128;2168876;-75
2021/05/25 09:07:59;;;;;;;;;;;;;;;27.30;26.29;100224.75;329311;116;2185028;-77
2021/05/25 09:10:22;;;;;;;;;;;;;;;27.69;25.85;100226.78;298585;115;2873038;-77
2021/05/25 09:12:42;;;;;;;;;;;;;;;27.67;25.20;100237.39;322387;119;2196585;-76
2021/05/25 09:14:59;;;;;;;;;;;;;;;27.90;25.43;100234.25;302486;116;2296223;-77
2021/05/25 09:16:07;;;;;;;;;;;;;;;27.73;25.89;100235.80;317499;119;2169770;-75
2021/05/25 09:18:34;;;;;;;;;;;;;;;28.03;26.03;100218.88;319367;116;2195682;-78
2021/05/25 09:20:55;;;;;;;;;;;;;;;27.50;26.49;100230.70;333830;116;2191809;-75
2021/05/25 09:23:13;;;;;;;;;;;;;;;26.02;27.97;100235.59;313233;119;2194634;-76
2021/05/25 09:25:50;;;;;;;;;;;;;;;26.77;27.51;100226.19;315057;119;2192125;-76
2021/05/25 09:28:09;;;;;;;;;;;;;;;27.37;26.73;100222.03;292880;117;2435038;-74
2021/05/25 09:31:37;;;;;;;;;;;;;;;28.26;25.90;100230.66;335060;117;2191587;-77
2021/05/25 09:34:04;;;;;;;;;;;;;;;27.91;25.83;100215.72;289355;119;2873886;-78
2021/05/25 09:35:11;;;;;;;1.81;0.89;;;;;;;27.75;26.08;100214.16;301080;119;2169766;-74
2021/05/25 09:37:32;;;;;;;;;;;;;;;27.38;26.12;100218.08;317073;117;2512031;-74
2021/05/25 09:39:53;;;;;;;;;;;;;;;27.06;26.65;100218.00;336290;117;2196777;-73
2021/05/25 09:41:01;;;;;;;2.59;1.18;;;;;;;27.11;26.89;100217.63;315748;119;2175816;-74
2021/05/25 09:43:21;;;;;;;1.29;1.00;;;;;;;27.64;25.35;100202.36;330010;117;2279063;-75
2021/05/25 09:44:26;;;;;;;1.89;0.92;;;;;;;27.03;25.54;100200.33;276370;119;2329866;-75
2021/05/25 09:45:54;;;;;;;1.61;1.00;;;;;;;26.83;25.45;100205.36;299757;114;2170053;-74
2021/05/25 09:47:02;;;;;;;1.80;0.96;;;;;;;26.83;26.36;100203.41;265491;122;3005963;-75
2021/05/25 09:48:08;;;;;;;2.26;0.89;;;;;;;27.36;26.20;100214.94;306256;119;2170657;-74
2021/05/25 09:49:13;;;;;;;1.52;0.96;;;;;;;27.11;26.20;100212.12;302683;124;2168717;-74
2021/05/25 09:50:20;;;;;;;1.09;0.99;;;;;;;26.61;26.76;100161.25;262562;122;2882994;-75
2021/05/25 09:52:36;;;;;;;;;;;;;;;27.05;26.78;100206.21;335993;117;2193718;-75
2021/05/25 09:55:04;;;;;;;;;;;;;;;27.40;26.17;100210.23;314017;117;2192715;-76
2021/05/25 09:56:15;;;;;;;1.99;1.25;;;;;;;27.71;25.84;100210.63;306687;113;2169584;-73
2021/05/25 09:58:40;;;;;;;;;;;;;;;28.35;25.35;100203.45;307072;117;2215196;-76
2021/05/25 09:59:46;;;;;;;1.19;0.61;;;;;;;28.42;25.41;100210.90;270611;119;3063072;-75
2021/05/25 10:00:52;;;;;;;0.77;0.60;;;;;;;27.95;23.66;100203.50;282739;118;2167586;-76
2021/05/25 10:02:09;;;;;;;2.50;0.68;;;;;;;28.08;22.71;100212.17;301045;125;2168712;-76
2021/05/25 10:04:35;;;;;;;;;;;;;;;27.14;23.45;100212.14;336405;117;2192863;-74
2021/05/25 10:06:57;;;;;;;;;;;;;;;25.98;25.24;100207.27;326706;114;2191940;-76
2021/05/25 10:09:19;;;;;;;;;;;;;;;27.08;24.91;100191.66;331909;117;2193859;-74
2021/05/25 10:11:47;;;;;;;;;;;;;;;28.14;24.31;100196.81;280275;112;2390788;-75
2021/05/25 10:12:53;;;;;;;2.01;0.79;;;;;;;28.18;23.87;100191.27;267044;125;2168777;-73
2021/05/25 10:15:11;;;;;;;;;;;;;;;28.38;23.29;100208.17;336380;117;2193719;-75
2021/05/25 10:17:44;;;;;;;;;;;;;;;26.97;24.41;100202.64;336276;117;2192807;-76
2021/05/25 10:20:02;;;;;;;1.89;1.08;;;;;;;27.45;24.10;100195.27;322364;117;2279701;-74
2021/05/25 10:22:20;;;;;;;0.90;0.84;;;;;;;27.57;23.20;100180.33;301430;119;2601056;-76
2021/05/25 10:24:36;;;;;;;;;;;;;;;27.10;24.43;100166.48;336183;117;2192800;-75
2021/05/25 10:25:43;;;;;;;2.82;0.78;;;;;;;27.43;24.14;100164.58;315742;119;2169814;-75
2021/05/25 10:28:06;;;;;;;;;;;;;;;27.69;24.28;100155.91;336434;117;2189818;-75
2021/05/25 10:29:12;;;;;;;2.82;1.10;;;;;;;27.95;24.18;100158.62;315699;119;2173690;-75
2021/05/25 10:31:48;;;;;;;;;;;;;;;27.69;25.59;100152.37;320775;117;2192696;-75
2021/05/25 10:32:51;;;;;;;1.17;0.99;;;;;;;28.07;25.26;100144.44;315558;119;2171732;-75
2021/05/25 10:35:41;;;;;;;;;;;;;;;28.87;24.29;100153.94;335691;117;2192710;-75
2021/05/25 10:36:47;;;;;;;2.09;0.79;;;;;;;27.90;24.30;100170.04;291900;119;2168799;-76
2021/05/25 10:39:36;;;;;;;0.85;0.80;;;;;;;28.60;24.12;100142.61;316126;113;2178120;-74
2021/05/25 10:40:44;;;;;;;1.68;1.01;;;;;;;28.44;24.01;100159.66;304298;117;2168540;-74
2021/05/25 10:41:51;;;;;;;2.34;1.21;;;;;;;28.73;23.95;100150.47;275083;125;2636087;-75
2021/05/25 10:43:38;;;;;;;1.41;1.16;;;;;;;28.84;23.91;100149.23;298832;125;2168602;-75
2021/05/25 10:46:36;;;;;;;1.79;1.16;;;;;;;29.37;23.42;100140.97;284418;117;2838466;-75
2021/05/25 10:49:12;;;;;;;;;;;;;;;29.27;23.08;100158.43;314208;119;2194280;-79
2021/05/25 10:52:18;;;;;;;2.78;2.11;;;;;;;29.36;23.08;100148.48;321773;114;2277638;31
2021/05/25 10:54:46;;;;;;;;;;;;;;;29.81;22.72;100135.81;319361;119;2194373;-76
2021/05/25 10:55:53;;;;;;;2.04;1.52;;;;;;;29.96;22.59;100142.02;244334;133;2201372;31
2021/05/25 10:58:29;;;;;;;;;;;;;;;29.94;22.71;100172.07;324860;119;2218760;-76
2021/05/25 11:01:12;;;;;;;;;;;;;;;27.82;24.78;100149.98;332388;117;2192048;-76
2021/05/25 11:04:00;;;;;;;;;;;;;;;28.35;24.47;100145.52;289864;119;2819108;-74
2021/05/25 11:06:31;;;;;;;;;;;;;;;28.34;23.95;100139.20;311089;116;2194804;-75
2021/05/25 11:08:54;;;;;;;;;;;;;;;29.08;23.43;100132.90;296169;112;2235972;-74
2021/05/25 11:10:24;;;;;;;1.25;0.87;;;;;;;29.05;23.25;100141.97;296328;126;2169697;-74
2021/05/25 11:13:06;;;;;;;;;;;;;;;29.18;22.98;100122.96;285528;119;2964166;-74
2021/05/25 11:15:32;;;;;;;;;;;;;;;29.41;22.92;100140.95;321814;117;2194490;-77
2021/05/25 11:17:59;;;;;;;;;;;;;;;27.68;24.86;100148.03;323073;115;2192738;-79
2021/05/25 11:20:52;;;;;;;;;;;;;;;28.44;24.12;100121.03;310162;119;2437043;-76
2021/05/25 11:23:00;;;;;;;;;;;;;;;28.58;23.99;100130.44;334201;117;2179842;-76
2021/05/25 11:25:54;;;;;;;;;;;;;;;29.34;23.59;100106.65;332059;117;2193773;-76
2021/05/25 11:27:01;;;;;;;2.50;1.02;;;;;;;29.41;23.34;100110.56;302589;116;2172663;-77
2021/05/25 11:29:25;;;;;;;;;;;;;;;29.61;23.03;100121.81;336302;117;2192697;-79
2021/05/25 11:31:42;;;;;;;;;;;;;;;29.46;23.25;100113.66;304759;119;2571000;-75
2021/05/25 11:34:04;;;;;;;1.33;0.88;;;;;;;29.68;22.88;100094.09;326409;116;2186096;-79
2021/05/25 11:36:21;;;;;;;;;;;;;;;28.90;22.85;100113.70;327833;116;2181663;-75
2021/05/25 11:38:40;;;;;;;0.74;0.70;;;;;;;28.54;22.83;100111.13;324545;117;2278628;-79
2021/05/25 11:41:15;;;;;;;;;;;;;;;27.95;23.50;100118.04;304226;117;2191641;-77
2021/05/25 11:43:40;;;;;;;;;;;;;;;28.18;24.31;100112.09;323936;119;2195894;-79
2021/05/25 11:45:56;;;;;;;;;;;;;;;28.49;23.91;100104.06;321956;116;2191571;-75
2021/05/25 11:48:22;;;;;;;;;;;;;;;27.38;25.36;100112.64;325267;112;2193881;-76
2021/05/25 11:50:41;;;;;;;2.54;0.74;;;;;;;27.09;25.39;100118.13;327159;116;2171711;-75
2021/05/25 11:52:57;;;;;;;;;;;;;;;27.15;25.15;100100.80;306746;119;2194695;-76
2021/05/25 11:55:23;;;;;;;;;;;;;;;26.41;26.68;100094.76;321471;115;2192051;-74
2021/05/25 11:57:46;;;;;;;;;;;;;;;27.24;25.82;100094.13;323046;114;2192729;-76
2021/05/25 12:00:10;;;;;;;;;;;;;;;27.16;26.32;100079.58;323148;119;2193620;-76
2021/05/25 12:02:32;;;;;;;;;;;;;;;27.94;25.38;100082.60;332071;112;2192521;-74
2021/05/25 12:04:50;;;;;;;;;;;;;;;28.26;24.88;100084.48;332548;116;2197793;-75
2021/05/25 12:07:07;;;;;;;;;;;;;;;28.64;24.48;100084.69;313720;116;3179879;-76
2021/05/25 12:09:26;;;;;;;;;;;;;;;28.45;24.61;100085.94;324040;119;2191700;-76
2021/05/25 12:11:47;;;;;;;;;;;;;;;27.77;24.99;100103.52;331337;117;2187760;-74
2021/05/25 12:14:04;;;;;;;1.93;0.82;;;;;;;26.56;26.80;100094.81;326594;117;2278634;-76
2021/05/25 12:16:22;;;;;;;;;;;;;;;26.70;27.37;100097.63;333878;116;2191694;-76
2021/05/25 12:18:42;;;;;;;;;;;;;;;25.38;29.86;100110.28;296969;116;2375213;-77
2021/05/25 12:21:06;;;;;;;;;;;;;;;26.23;28.79;100096.66;325994;116;2193719;-74
2021/05/25 12:23:26;;;;;;;;;;;;;;;26.41;28.37;100097.51;330729;114;2194622;-77
2021/05/25 12:25:42;;;;;;;;;;;;;;;26.76;27.32;100079.54;301656;117;2291774;-73
2021/05/25 12:28:10;;;;;;;1.69;0.90;;;;;;;27.50;26.77;100081.94;325446;117;2277814;-75
2021/05/25 12:30:28;;;;;;;2.68;0.90;;;;;;;26.83;26.99;100096.08;318419;118;2279834;-73
2021/05/25 12:32:44;;;;;;;;;;;;;;;27.10;26.53;100037.89;304373;117;2699009;-71
2021/05/25 12:35:08;;;;;;;;;;;;;;;27.58;26.51;100071.67;334015;117;2192753;-71
2021/05/25 12:37:26;;;;;;;1.93;1.07;;;;;;;28.04;26.27;100070.77;332738;117;2178960;-72
2021/05/25 12:39:43;;;;;;;;;;;;;;;27.48;27.10;100063.05;305728;117;2191607;-72
2021/05/25 12:42:13;;;;;;;;;;;;;;;26.39;28.40;100071.59;322134;117;2193756;-71
2021/05/25 12:44:32;;;;;;;;;;;;;;;26.53;28.31;100051.59;316292;117;2199722;-71
2021/05/25 12:46:54;;;;;;;;;;;;;;;25.62;30.08;100061.41;331911;117;2195063;-71
2021/05/25 12:49:29;;;;;;;2.19;0.99;;;;;;;25.47;29.65;100055.84;329362;117;2277720;-72
2021/05/25 12:51:46;;;;;;;;;;;;;;;25.09;30.38;100043.36;330973;117;2192747;-73
2021/05/25 12:54:23;;;;;;;;;;;;;;;25.22;30.32;100036.42;301584;116;2191578;-72
2021/05/25 12:56:39;;;;;;;;;;;;;;;25.36;30.14;100035.76;334987;117;2192696;-71
2021/05/25 12:58:57;;;;;;;2.12;1.22;;;;;;;24.44;32.34;100043.53;281323;119;2983998;-71
2021/05/25 13:01:21;;;;;;;1.25;1.02;;;;;;;23.97;33.32;100033.98;325428;117;2280684;-71
2021/05/25 13:04:17;;;;;;;;;;;;;;;24.02;33.34;100033.66;312608;115;3177923;-72
2021/05/25 13:06:47;;;;;;;;;;;;;;;23.40;34.97;100036.73;301367;112;2808973;-70
2021/05/25 13:09:14;;;;;;;3.52;1.22;;;;;;;23.24;35.65;100029.46;327263;112;2192522;31
2021/05/25 13:11:36;;;;;;;1.84;1.31;;;;;;;23.14;35.49;100021.08;285968;119;2904004;-72
2021/05/25 13:13:53;;;;;;;;;;;;;;;23.21;35.72;100007.50;336798;115;2192630;-70
2021/05/25 13:16:20;;;;;;;;;;;;;;;22.92;36.26;100023.42;308489;117;2641836;-75
2021/05/25 13:18:44;;;;;;;3.32;1.58;;;;;;;22.68;36.25;100016.38;285945;119;2369757;-74
2021/05/25 13:21:01;;;;;;;4.34;1.86;;;;;;;22.61;36.41;100003.37;329605;117;2193831;-76
2021/05/25 13:23:26;;;;;;;2.16;1.32;;;;;;;22.59;36.82;100006.47;323254;116;2279307;-75
2021/05/25 13:25:54;;;;;;;2.29;1.36;;;;;;;22.43;36.76;99991.34;330038;117;2193767;-74
2021/05/25 13:28:11;;;;;;;2.71;1.23;;;;;;;22.43;36.67;99994.08;320710;116;2193652;-75
2021/05/25 13:30:43;;;;;;;2.71;1.15;;;;;;;22.37;36.81;99999.86;288453;119;2277594;-73
2021/05/25 13:33:07;;;;;;;2.68;1.26;;;;;;;22.13;37.07;99995.45;328431;117;2195619;-73
2021/05/25 13:35:23;;;;;;;2.48;1.20;;;;;;;22.26;37.16;99993.34;331454;115;2192691;-73
2021/05/25 13:36:32;;;;;;;2.66;1.12;;;;;;;21.94;37.80;99992.72;296473;119;2168664;-73
2021/05/25 13:38:53;;;;;;;1.77;1.32;;;;;;;21.61;38.79;99994.79;323564;114;2195892;-74
2021/05/25 13:41:13;;;;;;;2.39;1.26;;;;;;;21.67;38.69;99995.30;329663;117;2171652;-72
2021/05/25 13:43:35;;;;;;;1.91;1.23;;;;;;;21.67;38.90;99979.73;323077;119;2191613;-73
2021/05/25 13:45:59;;;;;;;2.94;1.36;;;;;;;21.46;39.90;99979.22;324681;119;2198699;-75
2021/05/25 13:48:18;;;;;;;1.39;1.05;;;;;;;21.50;39.97;99974.64;318567;119;2194672;-72
2021/05/25 13:50:44;;;;;;;2.53;1.46;;;;;;;21.44;39.90;99970.62;287992;119;2806879;-75
2021/05/25 13:51:55;;;;;;;2.87;1.08;;;;;;;21.30;39.95;99977.33;277762;123;2171613;-76
2021/05/25 13:54:12;;;;;;;5.47;1.25;;;;;;;21.45;39.92;99985.82;283361;115;3128089;-73
2021/05/25 13:55:27;;;;;;;3.01;1.44;;;;;;;21.24;40.16;99984.22;296028;119;2170716;-75
2021/05/25 13:57:56;;;;;;;;;;;;;;;21.50;40.12;99975.45;335972;109;2192889;-78
2021/05/25 14:00:18;;;;;;;4.82;1.72;;;;;;;21.62;39.90;99974.55;292646;117;2951938;-75
2021/05/25 14:02:41;;;;;;;2.06;1.52;;;;;;;21.56;40.16;99954.92;332105;116;2192516;-73
2021/05/25 14:05:06;;;;;;;4.93;1.79;;;;;;;21.64;39.77;99961.31;328486;117;2199732;-74
2021/05/25 14:07:27;;;;;;;2.41;1.58;;;;;;;21.62;40.24;99966.35;321409;117;2194856;-73
2021/05/25 14:09:45;;;;;;;2.87;1.32;;;;;;;21.74;39.76;99957.22;287025;119;3163056;-72
2021/05/25 14:12:01;;;;;;;3.63;1.69;;;;;;;21.72;39.97;99965.77;327385;117;2195798;-75
2021/05/25 14:14:18;;;;;;;1.94;1.58;;;;;;;21.75;40.12;99960.77;300951;117;2451116;-73
2021/05/25 14:16:35;;;;;;;3.27;1.29;;;;;;;21.76;40.16;99959.62;329058;117;2193717;-74
2021/05/25 14:18:55;;;;;;;2.88;1.73;;;;;;;22.06;39.37;99971.53;321397;119;2169411;-73
2021/05/25 14:21:37;;;;;;;1.46;1.22;;;;;;;21.99;39.27;99968.64;328968;114;2196756;-72
2021/05/25 14:23:54;;;;;;;2.27;1.29;;;;;;;22.07;39.46;99977.78;302758;118;2275813;-72
2021/05/25 14:26:12;;;;;;;2.27;1.11;;;;;;;22.11;39.25;99964.17;331839;117;2192705;-73
2021/05/25 14:28:29;;;;;;;2.21;1.30;;;;;;;22.38;38.39;99954.95;328363;116;2277563;-72
2021/05/25 14:30:46;;;;;;;1.66;1.16;;;;;;;22.56;38.33;99951.75;300531;117;2192791;-73
2021/05/25 14:31:53;;;;;;;2.27;1.33;;;;;;;22.54;38.02;99949.39;302877;116;2174981;31
2021/05/25 14:34:10;;;;;;;3.24;1.46;;;;;;;22.71;38.29;99942.63;330895;115;2192674;-72
2021/05/25 14:36:34;;;;;;;1.75;1.28;;;;;;;22.75;38.57;99951.69;318792;114;2408020;31
2021/05/25 14:38:56;;;;;;;2.77;1.28;;;;;;;22.71;37.58;99950.84;325482;116;2193746;-74
2021/05/25 14:41:14;;;;;;;2.73;0.95;;;;;;;22.14;37.68;99947.08;328714;116;2280601;-72
2021/05/25 14:43:33;;;;;;;1.27;0.97;;;;;;;22.30;38.08;99945.02;326524;114;2192681;-73
2021/05/25 14:45:55;;;;;;;1.36;0.98;;;;;;;22.44;38.06;99949.98;320456;119;2193664;-74
2021/05/25 14:48:19;;;;;;;1.38;1.05;;;;;;;21.97;38.93;99954.57;326374;117;2192619;-75
2021/05/25 14:50:40;;;;;;;1.20;0.90;;;;;;;22.03;38.90;99939.45;321401;118;2193748;-72
2021/05/25 14:53:06;;;;;;;1.17;1.01;;;;;;;21.98;38.43;99930.77;327673;117;2198682;-74
2021/05/25 14:55:29;;;;;;;1.94;0.84;;;;;;;21.89;39.11;99933.73;329163;117;2192561;-72
2021/05/25 14:57:54;;;;;;;1.44;0.95;;;;;;;21.95;39.26;99934.23;295078;116;2405721;-73
2021/05/25 15:00:15;;;;;;;2.10;1.03;;;;;;;21.88;38.85;99923.95;328717;115;2194645;-74
2021/05/25 15:02:38;;;;;;;1.88;1.08;;;;;;;22.13;38.43;99913.48;319026;117;2193217;-72
2021/05/25 15:04:57;;;;;;;2.11;1.43;;;;;;;22.17;38.62;99919.81;320133;119;2185837;-75
2021/05/25 15:07:20;;;;;;;3.03;1.28;;;;;;;21.99;39.61;99914.02;329565;115;2284637;-72
2021/05/25 15:09:52;;;;;;;1.64;1.23;;;;;;;22.18;39.51;99902.27;289941;119;3177040;-74
2021/05/25 15:12:08;;;;;;;2.18;1.09;;;;;;;22.00;39.93;99912.88;319217;119;2199076;-73
2021/05/25 15:14:29;;;;;;;2.33;1.39;;;;;;;21.73;39.98;99904.56;326142;117;2192838;-73
2021/05/25 15:16:47;;;;;;;2.25;1.37;;;;;;;21.75;40.30;99900.70;332673;117;2193799;-73
2021/05/25 15:19:04;;;;;;;3.54;1.64;;;;;;;21.68;40.73;99891.20;309024;117;2447926;-74
2021/05/25 15:21:27;;;;;;;1.17;0.94;;;;;;;21.84;40.69;99888.41;331058;117;2196736;-73
2021/05/25 15:23:44;;;;;;;;;;;;;;;21.44;41.24;99899.66;333702;117;2169814;-74
2021/05/25 15:26:00;;;;;;;;;;;;;;;21.73;41.00;99885.45;320218;115;2529039;-72
2021/05/25 15:28:17;;;;;;;2.14;1.08;;;;;;;21.93;40.35;99885.44;319202;119;2190546;-74
2021/05/25 15:30:36;;;;;;;3.29;1.19;;;;;;;21.88;40.46;99886.53;317110;115;2276758;-72
2021/05/25 15:32:54;;;;;;;1.98;1.14;;;;;;;21.75;40.21;99884.31;292709;112;2282718;-74
2021/05/25 15:35:12;;;;;;;3.06;1.16;;;;;;;21.78;40.59;99878.91;328881;117;2200271;-71
2021/05/25 15:37:29;;;;;;;2.53;1.16;;;;;;;21.77;40.87;99882.00;330590;117;2193060;-73
2021/05/25 15:39:47;;;;;;;1.58;1.19;;;;;;;21.81;40.97;99871.94;328908;117;2172658;-73
2021/05/25 15:42:04;;;;;;;2.46;1.25;;;;;;;21.73;41.30;99874.54;289325;117;2408138;-74
2021/05/25 15:44:45;;;;;;;4.90;1.39;;;;;;;21.89;40.77;99870.92;304816;117;2421017;-72
2021/05/25 15:47:02;;;;;;;3.23;1.31;;;;;;;21.89;40.77;99866.23;321647;117;2276816;-74
2021/05/25 15:49:19;;;;;;;1.98;1.08;;;;;;;21.88;40.58;99858.41;327989;115;2196156;-73
2021/05/25 15:51:47;;;;;;;2.02;1.16;;;;;;;21.79;40.78;99871.53;327887;115;2279711;-71
2021/05/25 15:54:05;;;;;;;1.91;1.07;;;;;;;20.97;41.24;99784.92;311358;119;2192734;-74
2021/05/25 15:56:24;;;;;;;1.80;1.12;;;;;;;21.36;40.92;99869.50;326203;117;2192814;-73
2021/05/25 15:58:48;;;;;;;1.57;1.04;;;;;;;21.61;41.00;99860.27;326832;114;2194552;-72
2021/05/25 16:01:13;;;;;;;2.37;1.18;;;;;;;21.35;41.75;99858.92;328498;117;2192646;-73
2021/05/25 16:02:30;;;;;;;1.99;0.93;;;;;;;21.23;41.95;99852.46;286961;121;3096031;-73
2021/05/25 16:04:53;;;;;;;;;;;;;;;21.47;41.82;99845.14;305516;112;2191539;-74
2021/05/25 16:07:09;;;;;;;1.31;1.16;;;;;;;21.62;41.20;99859.89;329292;117;2194301;-74
2021/05/25 16:09:31;;;;;;;2.63;1.17;;;;;;;21.62;41.32;99845.47;317311;112;2483057;31
2021/05/25 16:11:49;;;;;;;2.38;1.21;;;;;;;21.43;41.54;99849.73;329681;117;2192603;-74
2021/05/25 16:14:15;;;;;;;2.13;1.30;;;;;;;21.72;40.87;99844.88;324010;111;2194689;-73
2021/05/25 16:16:43;;;;;;;2.76;1.28;;;;;;;21.60;41.16;99834.89;327796;117;2193658;-73
2021/05/25 16:18:58;;;;;;;1.99;1.26;;;;;;;21.42;41.75;99841.91;331644;116;2201666;-73
2021/05/25 16:21:22;;;;;;;1.84;1.29;;;;;;;21.50;41.55;99838.18;290640;117;2383102;-73
2021/05/25 16:23:39;;;;;;;3.33;1.17;;;;;;;21.42;41.61;99847.38;300326;117;3163035;-74
2021/05/25 16:26:03;;;;;;;2.91;0.97;;;;;;;21.25;42.02;99837.68;290020;114;3031972;-72
2021/05/25 16:28:27;;;;;;;2.74;1.12;;;;;;;21.18;42.20;99843.77;301309;114;2804860;-74
2021/05/25 16:30:49;;;;;;;2.08;1.20;;;;;;;21.31;41.63;99831.59;317258;119;2196780;-74
2021/05/25 16:33:19;;;;;;;3.06;1.43;;;;;;;21.05;42.25;99833.02;329373;117;2190756;-73
2021/05/25 16:35:36;;;;;;;3.67;1.41;;;;;;;21.17;42.11;99837.53;324374;112;2277669;-74
2021/05/25 16:37:55;;;;;;;5.53;1.35;;;;;;;21.10;42.65;99833.89;321560;119;2192771;-74
2021/05/25 16:40:28;;;;;;;3.32;1.22;;;;;;;21.06;42.41;99841.98;315461;119;2204609;-73
2021/05/25 16:41:36;;;;;;;2.32;1.11;;;;;;;20.82;42.62;99849.25;283220;118;2168780;-73
2021/05/25 16:43:56;;;;;;;3.95;1.50;;;;;;;21.00;42.71;99841.47;289991;114;2879058;-73
2021/05/25 16:46:31;;;;;;;2.74;1.19;;;;;;;20.52;43.00;99767.16;301985;117;2305721;-72
2021/05/25 16:48:55;;;;;;;2.52;1.24;;;;;;;21.09;42.82;99841.26;331486;117;2192602;-72
2021/05/25 16:51:12;;;;;;;4.34;1.91;;;;;;;21.15;42.90;99839.03;327745;117;2192700;-73
2021/05/25 16:53:36;;;;;;;3.68;1.48;;;;;;;20.98;43.56;99843.75;305872;119;2193711;-73
2021/05/25 16:56:01;;;;;;;2.53;1.28;;;;;;;21.12;43.14;99832.36;301616;114;2193758;-74
2021/05/25 16:58:26;;;;;;;2.93;1.30;;;;;;;21.02;43.29;99832.92;324822;117;2189635;-73
2021/05/25 17:03:33;;;;;;;2.58;1.36;;;;;;;20.86;43.64;99827.53;301381;115;2602934;-74
2021/05/25 17:06:04;;;;;;;2.84;1.07;;;;;;;20.76;44.04;99825.34;303974;117;2192901;-74
2021/05/25 17:08:57;;;;;;;5.55;1.50;;;;;;;20.70;44.08;99828.36;331818;116;2192705;-71
2021/05/25 17:19:06;;;;;;;3.68;1.55;;;;;;;20.50;45.13;99832.14;328609;117;2192706;-73
2021/05/25 17:21:24;;;;;;;2.78;1.62;;;;;;;20.48;45.33;99837.13;324035;117;2288826;-74
2021/05/25 17:23:44;;;;;;;2.47;1.61;;;;;;;20.28;46.14;99831.61;332069;117;2192682;-73
2021/05/25 17:28:45;;;;;;;4.12;1.73;;;;;;;20.21;46.80;99825.98;316667;119;2277708;-73
2021/05/25 17:31:04;;;;;;;4.11;1.78;;;;;;;20.20;46.95;99821.70;328678;117;2171634;-74
2021/05/25 17:33:26;;;;;;;2.96;1.80;;;;;;;20.02;47.67;99819.31;329647;112;2199711;-75
2021/05/25 17:35:44;;;;;;;3.02;1.57;;;;;;;19.95;48.03;99824.58;326692;117;2193710;-71
2021/05/25 17:38:03;;;;;;;2.81;1.61;;;;;;;19.90;48.21;99822.11;317374;117;2193720;-72
2021/05/25 17:40:26;;;;;;;1.67;1.37;;;;;;;19.80;48.74;99826.13;302550;117;2740113;-74
2021/05/25 17:42:50;;;;;;;1.75;1.50;;;;;;;19.79;48.41;99804.69;331709;117;2194604;-73
2021/05/25 17:45:14;;;;;;;3.21;1.70;;;;;;;19.67;49.21;99830.83;332486;117;2192662;-71
2021/05/25 17:47:33;;;;;;;3.84;1.56;;;;;;;19.56;49.67;99818.87;285957;117;2403101;-71
2021/05/25 17:49:52;;;;;;;2.20;1.78;;;;;;;19.56;49.70;99820.80;313186;117;2191771;-72
2021/05/25 17:52:09;;;;;;;3.24;1.71;;;;;;;19.44;50.23;99829.80;317454;119;2192622;-73
2021/05/25 17:54:27;;;;;;;3.05;1.86;;;;;;;19.50;49.84;99825.70;324916;114;2278828;-72
2021/05/25 17:56:43;;;;;;;;;;;;;;;19.38;50.38;99825.75;316937;117;2192798;-71
2021/05/25 17:59:16;;;;;;;3.33;2.17;;;;;;;19.28;50.74;99825.09;319446;112;2192701;-72
2021/05/25 18:01:40;;;;;;;4.48;1.75;;;;;;;19.29;50.77;99825.91;307649;116;2691029;-72
2021/05/25 18:04:03;;;;;;;2.99;1.72;;;;;;;19.31;50.59;99818.95;330295;117;2191722;-73
2021/05/25 18:06:22;;;;;;;3.18;2.19;;;;;;;19.13;51.39;99823.09;332426;115;2194823;-73